createdAt,value
2018-09-07T00:00:03.783Z,119
2018-09-07T00:05:03.800Z,119
2018-09-07T00:10:03.782Z,119
2018-09-07T00:15:03.783Z,119
2018-09-07T00:20:03.797Z,119
2018-09-07T00:25:03.792Z,119
2018-09-07T00:30:03.800Z,119
2018-09-07T00:35:03.803Z,119
2018-09-07T00:40:03.806Z,119
2018-09-07T00:45:03.806Z,119
2018-09-07T00:50:03.806Z,119
2018-09-07T00:55:03.804Z,119
2018-09-07T01:00:03.823Z,119
2018-09-07T01:05:03.822Z,119
2018-09-07T01:10:03.825Z,119
2018-09-07T01:15:03.880Z,119
2018-09-07T01:20:03.830Z,119
2018-09-07T01:25:03.828Z,119
2018-09-07T01:30:03.828Z,119
2018-09-07T01:35:03.833Z,119
2018-09-07T01:40:03.832Z,119
2018-09-07T01:45:03.833Z,119
2018-09-07T01:50:03.850Z,119
2018-09-07T01:55:03.842Z,119
2018-09-07T02:00:03.849Z,119
2018-09-07T02:05:03.861Z,119
2018-09-07T02:10:03.845Z,119
2018-09-07T02:15:03.858Z,119
2018-09-07T02:20:03.863Z,119
2018-09-07T02:25:03.859Z,119
2018-09-07T02:30:03.865Z,119
2018-09-07T02:35:03.872Z,119
2018-09-07T02:40:03.863Z,119
2018-09-07T02:45:03.875Z,119
2018-09-07T02:50:03.883Z,119
2018-09-07T02:55:03.871Z,119
2018-09-07T03:00:03.871Z,119
2018-09-07T03:05:03.888Z,119
2018-09-07T03:10:03.886Z,119
2018-09-07T03:15:03.888Z,119
2018-09-07T03:20:03.889Z,119
2018-09-07T03:25:03.907Z,119
2018-09-07T03:30:03.899Z,119
2018-09-07T03:35:03.902Z,119
2018-09-07T03:40:03.906Z,119
2018-09-07T03:45:03.901Z,119
2018-09-07T03:50:03.905Z,119
2018-09-07T03:55:03.904Z,119
2018-09-07T04:00:03.908Z,119
2018-09-07T04:05:03.910Z,119
2018-09-07T04:10:03.908Z,119
2018-09-07T04:15:03.911Z,119
2018-09-07T04:20:03.921Z,119
2018-09-07T04:25:03.916Z,119
2018-09-07T04:30:03.928Z,119
2018-09-07T04:35:03.943Z,119
2018-09-07T04:40:03.924Z,119
2018-09-07T04:45:03.929Z,119
2018-09-07T04:50:03.939Z,119
2018-09-07T04:55:03.931Z,119
2018-09-07T05:00:03.940Z,119
2018-09-07T05:05:03.953Z,119
2018-09-07T05:10:03.944Z,119
2018-09-07T05:15:03.953Z,119
2018-09-07T05:20:03.963Z,119
2018-09-07T05:25:03.959Z,119
2018-09-07T05:30:03.953Z,119
2018-09-07T05:35:03.984Z,119
2018-09-07T05:40:03.968Z,119
2018-09-07T05:45:03.962Z,119
2018-09-07T05:50:03.977Z,119
2018-09-07T05:55:03.971Z,119
2018-09-07T06:00:03.968Z,119
2018-09-07T06:05:03.982Z,119
2018-09-07T06:10:03.976Z,119
2018-09-07T06:15:03.977Z,119
2018-09-07T06:20:03.994Z,119
2018-09-07T06:25:03.991Z,119
2018-09-07T06:30:03.985Z,119
2018-09-07T06:35:03.994Z,119
2018-09-07T06:40:03.998Z,119
2018-09-07T06:45:04.007Z,119
2018-09-07T06:50:04.000Z,119
2018-09-07T06:55:03.999Z,119
2018-09-07T07:00:04.024Z,119
2018-09-07T07:05:04.020Z,119
2018-09-07T07:10:04.009Z,119
2018-09-07T07:15:04.023Z,119
2018-09-07T07:20:04.029Z,119
2018-09-07T07:25:04.023Z,119
2018-09-07T07:30:04.034Z,119
2018-09-07T07:35:04.043Z,119
2018-09-07T07:40:04.044Z,119
2018-09-07T07:45:04.021Z,119
2018-09-07T07:50:04.044Z,119
2018-09-07T07:55:04.054Z,119
2018-09-07T08:00:04.051Z,119
2018-09-07T08:05:04.059Z,119
2018-09-07T08:10:04.045Z,119
2018-09-07T08:35:04.073Z,119
2018-09-07T08:40:04.056Z,119
2018-09-07T08:45:04.057Z,119
2018-09-07T08:50:04.071Z,119
2018-09-07T08:55:04.398Z,119
2018-09-07T09:00:04.123Z,119
2018-09-07T09:05:04.069Z,119
2018-09-07T09:10:04.078Z,119
2018-09-07T09:15:04.078Z,119
2018-09-07T09:20:04.078Z,119
2018-09-07T09:25:04.094Z,119
2018-09-07T09:30:04.093Z,119
2018-09-07T09:35:04.099Z,119
2018-09-07T09:40:04.111Z,119
2018-09-07T09:45:04.101Z,119
2018-09-07T09:50:04.094Z,119
2018-09-07T09:55:04.104Z,119
2018-09-07T10:00:04.125Z,119
2018-09-07T10:05:04.322Z,119
2018-09-07T10:10:04.118Z,119
2018-09-07T10:15:04.115Z,119
2018-09-07T10:20:04.112Z,119
2018-09-07T10:25:04.126Z,119
2018-09-07T10:30:04.114Z,119
2018-09-07T10:35:04.138Z,119
2018-09-07T10:40:04.134Z,119
2018-09-07T10:45:04.126Z,119
2018-09-07T10:50:04.128Z,119
2018-09-07T10:55:04.154Z,119
2018-09-07T11:00:04.152Z,119
2018-09-07T11:05:04.133Z,119
2018-09-07T11:10:04.146Z,119
2018-09-07T11:15:04.141Z,119
2018-09-07T11:20:04.146Z,119
2018-09-07T11:25:04.160Z,119
2018-09-07T11:30:04.149Z,119
2018-09-07T11:35:04.161Z,119
2018-09-07T11:40:04.166Z,119
2018-09-07T11:45:04.164Z,119
2018-09-07T11:50:04.162Z,119
2018-09-07T11:55:04.183Z,119
2018-09-07T12:00:04.164Z,119
2018-09-07T12:05:04.168Z,119
2018-09-07T12:10:04.187Z,119
2018-09-07T12:15:04.174Z,119
2018-09-07T12:20:04.175Z,119
2018-09-07T12:25:04.206Z,119
2018-09-07T12:30:04.182Z,119
2018-09-07T12:35:04.185Z,119
2018-09-07T12:40:04.208Z,119
2018-09-07T12:45:04.194Z,119
2018-09-07T12:50:04.189Z,119
2018-09-07T12:55:04.200Z,119
2018-09-07T13:00:04.211Z,119
2018-09-07T13:05:04.204Z,119
2018-09-07T13:10:04.224Z,119
2018-09-07T13:15:04.207Z,119
2018-09-07T13:20:04.224Z,119
2018-09-07T13:25:04.216Z,119
2018-09-07T13:30:04.236Z,119
2018-09-07T13:35:04.229Z,119
2018-09-07T13:40:04.221Z,119
2018-09-07T13:45:04.243Z,119
2018-09-07T13:50:04.211Z,119
2018-09-07T13:55:04.240Z,119
2018-09-07T14:00:04.273Z,119
2018-09-07T14:05:04.277Z,119
2018-09-07T14:10:04.235Z,119
2018-09-07T14:15:04.251Z,119
2018-09-07T14:20:04.255Z,119
2018-09-07T14:25:04.251Z,101.1
2018-09-07T14:30:04.250Z,56.31
2018-09-07T14:35:04.265Z,48.14
2018-09-07T14:40:04.258Z,47.68
2018-09-07T14:45:04.274Z,48.16
2018-09-07T14:50:04.272Z,26.78
2018-09-07T14:55:04.437Z,-5.41
2018-09-07T15:00:04.283Z,-6
2018-09-07T15:05:04.280Z,-6
2018-09-07T15:10:04.285Z,-6
2018-09-07T15:15:04.291Z,-6
2018-09-07T15:20:04.275Z,-6
2018-09-07T15:25:04.276Z,5.21
2018-09-07T15:30:04.300Z,21.69
2018-09-07T15:35:04.288Z,46.17
2018-09-07T15:40:04.281Z,58.12
2018-09-07T15:45:04.292Z,58.11
2018-09-07T15:50:04.299Z,57.73
2018-09-07T15:55:04.299Z,76.94
2018-09-07T16:00:06.810Z,69.03
2018-09-07T16:05:04.330Z,82.59
2018-09-07T16:10:04.303Z,80.67
2018-09-07T16:15:04.300Z,87.4
2018-09-07T16:20:04.316Z,84.32
2018-09-07T16:25:04.320Z,98.48
2018-09-07T16:30:04.314Z,101.49
2018-09-07T16:35:04.323Z,111.8
2018-09-07T16:40:04.313Z,105.89
2018-09-07T16:45:04.335Z,106.71
2018-09-07T16:50:04.336Z,115.02
2018-09-07T16:55:04.323Z,119
2018-09-07T17:00:04.322Z,119
2018-09-07T17:05:04.344Z,119
2018-09-07T17:10:04.338Z,119
2018-09-07T17:15:04.336Z,119
2018-09-07T17:20:04.339Z,119
2018-09-07T17:25:04.334Z,119
2018-09-07T17:30:04.336Z,119
2018-09-07T17:35:04.361Z,119
2018-09-07T17:40:04.345Z,119
2018-09-07T17:45:04.345Z,119
2018-09-07T17:50:04.375Z,119
2018-09-07T17:55:04.359Z,119
2018-09-07T18:00:04.357Z,119
2018-09-07T18:05:04.665Z,119
2018-09-07T18:10:04.364Z,119
2018-09-07T18:15:04.382Z,119
2018-09-07T18:20:04.394Z,119
2018-09-07T18:25:04.366Z,119
2018-09-07T18:30:04.372Z,119
2018-09-07T18:35:04.530Z,119
2018-09-07T18:40:04.402Z,119
2018-09-07T18:45:04.378Z,119
2018-09-07T18:50:04.403Z,119
2018-09-07T18:55:04.380Z,119
2018-09-07T19:00:04.388Z,119
2018-09-07T19:05:04.401Z,119
2018-09-07T19:10:04.407Z,119
2018-09-07T19:15:04.404Z,119
2018-09-07T19:20:04.403Z,119
2018-09-07T19:25:04.401Z,119
2018-09-07T19:30:04.406Z,119
2018-09-07T19:35:04.412Z,119
2018-09-07T19:40:04.413Z,119
2018-09-07T19:45:04.485Z,119
2018-09-07T19:50:04.444Z,119
2018-09-07T19:55:04.423Z,119
2018-09-07T20:00:03.417Z,119
2018-09-07T20:05:03.422Z,119
2018-09-07T20:10:03.441Z,119
2018-09-07T20:15:03.427Z,119
2018-09-07T20:20:03.439Z,119
2018-09-07T20:25:03.668Z,119
2018-09-07T20:30:03.437Z,119
2018-09-07T20:35:03.461Z,119
2018-09-07T20:40:03.469Z,119
2018-09-07T20:45:03.455Z,119
2018-09-07T20:50:03.447Z,119
2018-09-07T20:55:03.480Z,119
2018-09-07T21:00:03.466Z,119
2018-09-07T21:05:03.462Z,119
2018-09-07T21:10:03.552Z,119
2018-09-07T21:15:03.467Z,119
2018-09-07T21:20:03.486Z,119
2018-09-07T21:25:03.488Z,119
2018-09-07T21:30:03.464Z,119
2018-09-07T21:35:03.465Z,119
2018-09-07T21:40:03.494Z,119
2018-09-07T21:45:03.503Z,119
2018-09-07T21:50:03.492Z,119
2018-09-07T21:55:03.505Z,119
2018-09-07T22:00:03.482Z,119
2018-09-07T22:05:03.504Z,119
2018-09-07T22:10:03.488Z,119
2018-09-07T22:15:03.510Z,119
2018-09-07T22:20:03.503Z,119
2018-09-07T22:25:03.494Z,119
2018-09-07T22:30:03.512Z,119
2018-09-07T22:35:03.518Z,119
2018-09-07T22:40:03.501Z,119
2018-09-07T22:45:03.516Z,119
2018-09-07T22:50:03.509Z,119
2018-09-07T22:55:03.509Z,119
2018-09-07T23:00:03.536Z,119
2018-09-07T23:05:03.513Z,119
2018-09-07T23:10:03.517Z,119
2018-09-07T23:15:03.551Z,119
2018-09-07T23:20:03.525Z,119
2018-09-07T23:25:03.670Z,119
2018-09-07T23:30:03.554Z,119
2018-09-07T23:35:03.531Z,119
2018-09-07T23:40:03.535Z,119
2018-09-07T23:45:03.556Z,119
2018-09-07T23:50:03.550Z,119
2018-09-07T23:55:03.540Z,119
